sensor_id;sensor_type;location;lat;lon;timestamp;temperature;humidity
16315;DHT22;8266;52.150;4.768;2023-05-23T00:00:54;17.60;99.90
16315;DHT22;8266;52.150;4.768;2023-05-23T00:03:23;17.60;99.90
16315;DHT22;8266;52.150;4.768;2023-05-23T00:05:50;17.50;99.90
16315;DHT22;8266;52.150;4.768;2023-05-23T00:08:17;17.50;99.90
16315;DHT22;8266;52.150;4.768;2023-05-23T00:10:44;17.50;99.90
16315;DHT22;8266;52.150;4.768;2023-05-23T00:13:13;17.50;99.90
16315;DHT22;8266;52.150;4.768;2023-05-23T00:15:40;17.50;99.90
16315;DHT22;8266;52.150;4.768;2023-05-23T00:18:07;17.50;99.90
16315;DHT22;8266;52.150;4.768;2023-05-23T00:20:36;17.50;99.90
16315;DHT22;8266;52.150;4.768;2023-05-23T00:23:05;17.40;99.90
16315;DHT22;8266;52.150;4.768;2023-05-23T00:25:33;17.40;99.90
16315;DHT22;8266;52.150;4.768;2023-05-23T00:28:00;17.40;99.90
16315;DHT22;8266;52.150;4.768;2023-05-23T00:30:29;17.40;99.90
16315;DHT22;8266;52.150;4.768;2023-05-23T00:32:56;17.30;99.90
16315;DHT22;8266;52.150;4.768;2023-05-23T00:35:25;17.30;99.90
16315;DHT22;8266;52.150;4.768;2023-05-23T00:37:52;17.30;99.90
16315;DHT22;8266;52.150;4.768;2023-05-23T00:40:20;17.20;99.90
16315;DHT22;8266;52.150;4.768;2023-05-23T00:42:47;17.20;99.90
16315;DHT22;8266;52.150;4.768;2023-05-23T00:45:16;17.20;99.90
16315;DHT22;8266;52.150;4.768;2023-05-23T00:47:45;17.10;99.90
16315;DHT22;8266;52.150;4.768;2023-05-23T00:50:13;17.10;99.90
16315;DHT22;8266;52.150;4.768;2023-05-23T00:52:41;17.10;99.90
16315;DHT22;8266;52.150;4.768;2023-05-23T00:55:09;17.10;99.90
16315;DHT22;8266;52.150;4.768;2023-05-23T00:57:36;17.00;99.90
16315;DHT22;8266;52.150;4.768;2023-05-23T01:00:06;17.00;99.90
16315;DHT22;8266;52.150;4.768;2023-05-23T01:02:36;17.00;99.90
16315;DHT22;8266;52.150;4.768;2023-05-23T01:05:08;17.00;99.90
16315;DHT22;8266;52.150;4.768;2023-05-23T01:07:35;17.00;99.90
16315;DHT22;8266;52.150;4.768;2023-05-23T01:10:03;17.00;99.90
16315;DHT22;8266;52.150;4.768;2023-05-23T01:12:36;17.00;99.90
16315;DHT22;8266;52.150;4.768;2023-05-23T01:15:08;17.00;99.90
16315;DHT22;8266;52.150;4.768;2023-05-23T01:17:43;17.00;99.90
16315;DHT22;8266;52.150;4.768;2023-05-23T01:20:17;17.00;99.90
16315;DHT22;8266;52.150;4.768;2023-05-23T01:23:04;17.00;99.90
16315;DHT22;8266;52.150;4.768;2023-05-23T01:25:45;17.00;99.90
16315;DHT22;8266;52.150;4.768;2023-05-23T01:28:17;17.00;99.90
16315;DHT22;8266;52.150;4.768;2023-05-23T01:30:45;17.00;99.90
16315;DHT22;8266;52.150;4.768;2023-05-23T01:33:15;17.00;99.90
16315;DHT22;8266;52.150;4.768;2023-05-23T01:35:43;17.00;99.90
16315;DHT22;8266;52.150;4.768;2023-05-23T01:38:10;16.90;99.90
16315;DHT22;8266;52.150;4.768;2023-05-23T01:40:38;16.90;99.90
16315;DHT22;8266;52.150;4.768;2023-05-23T01:43:05;16.90;99.90
16315;DHT22;8266;52.150;4.768;2023-05-23T01:45:34;16.90;99.90
16315;DHT22;8266;52.150;4.768;2023-05-23T01:48:02;16.90;99.90
16315;DHT22;8266;52.150;4.768;2023-05-23T01:50:31;16.90;99.90
16315;DHT22;8266;52.150;4.768;2023-05-23T01:52:59;16.80;99.90
16315;DHT22;8266;52.150;4.768;2023-05-23T01:55:26;16.80;99.90
16315;DHT22;8266;52.150;4.768;2023-05-23T01:57:54;16.80;99.90
16315;DHT22;8266;52.150;4.768;2023-05-23T02:00:23;16.80;99.90
16315;DHT22;8266;52.150;4.768;2023-05-23T02:02:51;16.80;99.90
16315;DHT22;8266;52.150;4.768;2023-05-23T02:05:18;16.80;99.90
16315;DHT22;8266;52.150;4.768;2023-05-23T02:07:45;16.80;99.90
16315;DHT22;8266;52.150;4.768;2023-05-23T02:10:12;16.80;99.90
16315;DHT22;8266;52.150;4.768;2023-05-23T02:12:39;16.80;99.90
16315;DHT22;8266;52.150;4.768;2023-05-23T02:15:07;16.80;99.90
16315;DHT22;8266;52.150;4.768;2023-05-23T02:17:34;16.80;99.90
16315;DHT22;8266;52.150;4.768;2023-05-23T02:20:02;16.80;99.90
16315;DHT22;8266;52.150;4.768;2023-05-23T02:22:31;16.80;99.90
16315;DHT22;8266;52.150;4.768;2023-05-23T02:24:58;16.80;99.90
16315;DHT22;8266;52.150;4.768;2023-05-23T02:27:24;16.80;99.90
16315;DHT22;8266;52.150;4.768;2023-05-23T02:29:52;16.80;99.90
16315;DHT22;8266;52.150;4.768;2023-05-23T02:32:18;16.80;99.90
16315;DHT22;8266;52.150;4.768;2023-05-23T02:34:45;16.70;99.90
16315;DHT22;8266;52.150;4.768;2023-05-23T02:37:16;16.80;99.90
16315;DHT22;8266;52.150;4.768;2023-05-23T02:39:43;16.80;99.90
16315;DHT22;8266;52.150;4.768;2023-05-23T02:42:10;16.80;99.90
16315;DHT22;8266;52.150;4.768;2023-05-23T02:44:37;16.70;99.90
16315;DHT22;8266;52.150;4.768;2023-05-23T02:47:07;16.80;99.90
16315;DHT22;8266;52.150;4.768;2023-05-23T02:49:33;16.70;99.90
16315;DHT22;8266;52.150;4.768;2023-05-23T02:52:00;16.70;99.90
16315;DHT22;8266;52.150;4.768;2023-05-23T02:54:29;16.70;99.90
16315;DHT22;8266;52.150;4.768;2023-05-23T02:56:56;16.70;99.90
16315;DHT22;8266;52.150;4.768;2023-05-23T02:59:23;16.70;99.90
16315;DHT22;8266;52.150;4.768;2023-05-23T03:01:51;16.60;99.90
16315;DHT22;8266;52.150;4.768;2023-05-23T03:04:18;16.60;99.90
16315;DHT22;8266;52.150;4.768;2023-05-23T03:06:45;16.60;99.90
16315;DHT22;8266;52.150;4.768;2023-05-23T03:09:13;16.60;99.90
16315;DHT22;8266;52.150;4.768;2023-05-23T03:11:42;16.60;99.90
16315;DHT22;8266;52.150;4.768;2023-05-23T03:14:09;16.50;99.90
16315;DHT22;8266;52.150;4.768;2023-05-23T03:16:36;16.50;99.90
16315;DHT22;8266;52.150;4.768;2023-05-23T03:19:03;16.50;99.90
16315;DHT22;8266;52.150;4.768;2023-05-23T03:21:31;16.40;99.90
16315;DHT22;8266;52.150;4.768;2023-05-23T03:23:59;16.40;99.90
16315;DHT22;8266;52.150;4.768;2023-05-23T03:26:26;16.40;99.90
16315;DHT22;8266;52.150;4.768;2023-05-23T03:28:54;16.40;99.90
16315;DHT22;8266;52.150;4.768;2023-05-23T03:31:21;16.40;99.90
16315;DHT22;8266;52.150;4.768;2023-05-23T03:33:49;16.40;99.90
16315;DHT22;8266;52.150;4.768;2023-05-23T03:36:18;16.30;99.90
16315;DHT22;8266;52.150;4.768;2023-05-23T03:38:46;16.30;99.90
16315;DHT22;8266;52.150;4.768;2023-05-23T03:41:13;16.20;99.90
16315;DHT22;8266;52.150;4.768;2023-05-23T03:43:40;16.20;99.90
16315;DHT22;8266;52.150;4.768;2023-05-23T03:46:08;16.20;99.90
16315;DHT22;8266;52.150;4.768;2023-05-23T03:48:36;16.20;99.90
16315;DHT22;8266;52.150;4.768;2023-05-23T03:51:03;16.20;99.90
16315;DHT22;8266;52.150;4.768;2023-05-23T03:53:31;16.20;99.90
16315;DHT22;8266;52.150;4.768;2023-05-23T03:55:57;16.10;99.90
16315;DHT22;8266;52.150;4.768;2023-05-23T03:58:24;16.10;99.90
16315;DHT22;8266;52.150;4.768;2023-05-23T04:00:51;16.10;99.90
16315;DHT22;8266;52.150;4.768;2023-05-23T04:03:20;16.10;99.90
16315;DHT22;8266;52.150;4.768;2023-05-23T04:05:47;16.00;99.90
16315;DHT22;8266;52.150;4.768;2023-05-23T04:08:14;16.00;99.90
16315;DHT22;8266;52.150;4.768;2023-05-23T04:10:41;16.00;99.90
16315;DHT22;8266;52.150;4.768;2023-05-23T04:13:08;16.00;99.90
16315;DHT22;8266;52.150;4.768;2023-05-23T04:15:35;15.90;99.90
16315;DHT22;8266;52.150;4.768;2023-05-23T04:18:02;15.90;99.90
16315;DHT22;8266;52.150;4.768;2023-05-23T04:20:30;15.80;99.90
16315;DHT22;8266;52.150;4.768;2023-05-23T04:22:57;15.80;99.90
16315;DHT22;8266;52.150;4.768;2023-05-23T04:25:24;15.80;99.90
16315;DHT22;8266;52.150;4.768;2023-05-23T04:27:51;15.70;99.90
16315;DHT22;8266;52.150;4.768;2023-05-23T04:30:20;15.70;99.90
16315;DHT22;8266;52.150;4.768;2023-05-23T04:32:47;15.70;99.90
16315;DHT22;8266;52.150;4.768;2023-05-23T04:35:14;15.70;99.90
16315;DHT22;8266;52.150;4.768;2023-05-23T04:37:43;15.70;99.90
16315;DHT22;8266;52.150;4.768;2023-05-23T04:40:10;15.70;99.90
16315;DHT22;8266;52.150;4.768;2023-05-23T04:42:38;15.60;99.90
16315;DHT22;8266;52.150;4.768;2023-05-23T04:45:08;15.60;99.90
16315;DHT22;8266;52.150;4.768;2023-05-23T04:47:36;15.60;99.90
16315;DHT22;8266;52.150;4.768;2023-05-23T04:50:03;15.60;99.90
16315;DHT22;8266;52.150;4.768;2023-05-23T04:52:30;15.60;99.90
16315;DHT22;8266;52.150;4.768;2023-05-23T04:54:59;15.60;99.90
16315;DHT22;8266;52.150;4.768;2023-05-23T04:57:26;15.60;99.90
16315;DHT22;8266;52.150;4.768;2023-05-23T04:59:53;15.60;99.90
16315;DHT22;8266;52.150;4.768;2023-05-23T05:02:21;15.60;99.90
16315;DHT22;8266;52.150;4.768;2023-05-23T05:04:48;15.60;99.90
16315;DHT22;8266;52.150;4.768;2023-05-23T05:07:15;15.60;99.90
16315;DHT22;8266;52.150;4.768;2023-05-23T05:09:42;15.60;99.90
16315;DHT22;8266;52.150;4.768;2023-05-23T05:12:11;15.60;99.90
16315;DHT22;8266;52.150;4.768;2023-05-23T05:14:37;15.60;99.90
16315;DHT22;8266;52.150;4.768;2023-05-23T05:17:04;15.60;99.90
16315;DHT22;8266;52.150;4.768;2023-05-23T05:19:31;15.60;99.90
16315;DHT22;8266;52.150;4.768;2023-05-23T05:21:58;15.70;99.90
16315;DHT22;8266;52.150;4.768;2023-05-23T05:24:26;15.70;99.90
16315;DHT22;8266;52.150;4.768;2023-05-23T05:26:53;15.70;99.90
16315;DHT22;8266;52.150;4.768;2023-05-23T05:29:22;15.70;99.90
16315;DHT22;8266;52.150;4.768;2023-05-23T05:31:49;15.70;99.90
16315;DHT22;8266;52.150;4.768;2023-05-23T05:34:16;15.60;99.90
16315;DHT22;8266;52.150;4.768;2023-05-23T05:36:43;15.60;99.90
16315;DHT22;8266;52.150;4.768;2023-05-23T05:39:13;15.60;99.90
16315;DHT22;8266;52.150;4.768;2023-05-23T05:41:40;15.60;99.90
16315;DHT22;8266;52.150;4.768;2023-05-23T05:44:07;15.60;99.90
16315;DHT22;8266;52.150;4.768;2023-05-23T05:46:35;15.60;99.90
16315;DHT22;8266;52.150;4.768;2023-05-23T05:49:02;15.60;99.90
16315;DHT22;8266;52.150;4.768;2023-05-23T05:51:30;15.60;99.90
16315;DHT22;8266;52.150;4.768;2023-05-23T05:53:57;15.60;99.90
16315;DHT22;8266;52.150;4.768;2023-05-23T05:56:24;15.50;99.90
16315;DHT22;8266;52.150;4.768;2023-05-23T05:58:52;15.50;99.90
16315;DHT22;8266;52.150;4.768;2023-05-23T06:01:19;15.50;99.90
16315;DHT22;8266;52.150;4.768;2023-05-23T06:03:47;15.50;99.90
16315;DHT22;8266;52.150;4.768;2023-05-23T06:06:14;15.50;99.90
16315;DHT22;8266;52.150;4.768;2023-05-23T06:08:41;15.50;99.90
16315;DHT22;8266;52.150;4.768;2023-05-23T06:11:08;15.50;99.90
16315;DHT22;8266;52.150;4.768;2023-05-23T06:13:36;15.50;99.90
16315;DHT22;8266;52.150;4.768;2023-05-23T06:16:04;15.50;99.90
16315;DHT22;8266;52.150;4.768;2023-05-23T06:18:31;15.50;99.90
16315;DHT22;8266;52.150;4.768;2023-05-23T06:21:00;15.50;99.90
16315;DHT22;8266;52.150;4.768;2023-05-23T06:23:27;15.50;99.90
16315;DHT22;8266;52.150;4.768;2023-05-23T06:25:55;15.50;99.90
16315;DHT22;8266;52.150;4.768;2023-05-23T06:28:22;15.50;99.90
16315;DHT22;8266;52.150;4.768;2023-05-23T06:30:49;15.50;99.90
16315;DHT22;8266;52.150;4.768;2023-05-23T06:33:16;15.50;99.90
16315;DHT22;8266;52.150;4.768;2023-05-23T06:35:42;15.50;99.90
16315;DHT22;8266;52.150;4.768;2023-05-23T06:38:11;15.50;99.90
16315;DHT22;8266;52.150;4.768;2023-05-23T06:40:38;15.50;99.90
16315;DHT22;8266;52.150;4.768;2023-05-23T06:43:05;15.60;99.90
16315;DHT22;8266;52.150;4.768;2023-05-23T06:45:32;15.80;99.90
16315;DHT22;8266;52.150;4.768;2023-05-23T06:48:00;16.10;99.90
16315;DHT22;8266;52.150;4.768;2023-05-23T06:50:27;16.40;99.90
16315;DHT22;8266;52.150;4.768;2023-05-23T06:52:54;16.60;99.90
16315;DHT22;8266;52.150;4.768;2023-05-23T06:55:23;16.80;99.90
16315;DHT22;8266;52.150;4.768;2023-05-23T06:57:49;17.20;99.90
16315;DHT22;8266;52.150;4.768;2023-05-23T07:00:17;17.50;99.90
16315;DHT22;8266;52.150;4.768;2023-05-23T07:02:44;17.70;99.90
16315;DHT22;8266;52.150;4.768;2023-05-23T07:05:13;17.90;99.90
16315;DHT22;8266;52.150;4.768;2023-05-23T07:07:40;18.00;99.90
16315;DHT22;8266;52.150;4.768;2023-05-23T07:10:08;17.90;99.90
16315;DHT22;8266;52.150;4.768;2023-05-23T07:12:37;17.80;99.90
16315;DHT22;8266;52.150;4.768;2023-05-23T07:15:05;17.70;99.90
16315;DHT22;8266;52.150;4.768;2023-05-23T07:17:32;17.70;99.90
16315;DHT22;8266;52.150;4.768;2023-05-23T07:20:00;17.80;99.90
16315;DHT22;8266;52.150;4.768;2023-05-23T07:22:29;17.90;99.90
16315;DHT22;8266;52.150;4.768;2023-05-23T07:24:55;18.10;99.90
16315;DHT22;8266;52.150;4.768;2023-05-23T07:27:22;18.20;99.90
16315;DHT22;8266;52.150;4.768;2023-05-23T07:29:51;18.50;99.90
16315;DHT22;8266;52.150;4.768;2023-05-23T07:32:18;18.80;99.90
16315;DHT22;8266;52.150;4.768;2023-05-23T07:34:45;19.00;99.90
16315;DHT22;8266;52.150;4.768;2023-05-23T07:37:12;19.30;99.90
16315;DHT22;8266;52.150;4.768;2023-05-23T07:39:40;19.50;99.90
16315;DHT22;8266;52.150;4.768;2023-05-23T07:42:07;19.60;99.90
16315;DHT22;8266;52.150;4.768;2023-05-23T07:44:34;19.80;99.90
16315;DHT22;8266;52.150;4.768;2023-05-23T07:47:02;19.90;99.90
16315;DHT22;8266;52.150;4.768;2023-05-23T07:49:29;20.00;99.90
16315;DHT22;8266;52.150;4.768;2023-05-23T07:51:57;20.20;99.90
16315;DHT22;8266;52.150;4.768;2023-05-23T07:54:24;20.30;99.90
16315;DHT22;8266;52.150;4.768;2023-05-23T07:56:51;20.60;99.90
16315;DHT22;8266;52.150;4.768;2023-05-23T07:59:18;20.70;99.90
16315;DHT22;8266;52.150;4.768;2023-05-23T08:01:47;20.80;99.90
16315;DHT22;8266;52.150;4.768;2023-05-23T08:04:16;20.90;99.90
16315;DHT22;8266;52.150;4.768;2023-05-23T08:06:43;21.00;99.90
16315;DHT22;8266;52.150;4.768;2023-05-23T08:09:11;21.10;99.90
16315;DHT22;8266;52.150;4.768;2023-05-23T08:11:38;21.20;99.90
16315;DHT22;8266;52.150;4.768;2023-05-23T08:14:05;21.20;99.90
16315;DHT22;8266;52.150;4.768;2023-05-23T08:16:34;21.20;99.90
16315;DHT22;8266;52.150;4.768;2023-05-23T08:19:01;21.10;99.90
16315;DHT22;8266;52.150;4.768;2023-05-23T08:21:29;21.10;99.90
16315;DHT22;8266;52.150;4.768;2023-05-23T08:23:56;21.10;99.90
16315;DHT22;8266;52.150;4.768;2023-05-23T08:26:23;21.00;99.90
16315;DHT22;8266;52.150;4.768;2023-05-23T08:28:52;20.90;99.90
16315;DHT22;8266;52.150;4.768;2023-05-23T08:31:19;20.80;99.90
16315;DHT22;8266;52.150;4.768;2023-05-23T08:33:46;20.80;99.90
16315;DHT22;8266;52.150;4.768;2023-05-23T08:36:13;20.70;99.90
16315;DHT22;8266;52.150;4.768;2023-05-23T08:38:41;20.60;99.90
16315;DHT22;8266;52.150;4.768;2023-05-23T08:41:17;20.60;99.90
16315;DHT22;8266;52.150;4.768;2023-05-23T08:43:44;20.50;99.90
16315;DHT22;8266;52.150;4.768;2023-05-23T08:46:11;20.50;99.90
16315;DHT22;8266;52.150;4.768;2023-05-23T08:48:38;20.40;99.90
16315;DHT22;8266;52.150;4.768;2023-05-23T08:51:06;20.40;99.90
16315;DHT22;8266;52.150;4.768;2023-05-23T08:53:35;20.50;99.90
16315;DHT22;8266;52.150;4.768;2023-05-23T08:56:03;20.50;99.90
16315;DHT22;8266;52.150;4.768;2023-05-23T08:58:31;20.60;99.90
16315;DHT22;8266;52.150;4.768;2023-05-23T09:00:59;20.60;99.90
16315;DHT22;8266;52.150;4.768;2023-05-23T09:03:26;20.70;99.90
16315;DHT22;8266;52.150;4.768;2023-05-23T09:05:54;20.70;99.90
16315;DHT22;8266;52.150;4.768;2023-05-23T09:08:22;20.70;99.90
16315;DHT22;8266;52.150;4.768;2023-05-23T09:10:50;20.70;99.90
16315;DHT22;8266;52.150;4.768;2023-05-23T09:13:19;20.80;99.90
16315;DHT22;8266;52.150;4.768;2023-05-23T09:16:04;20.80;99.90
16315;DHT22;8266;52.150;4.768;2023-05-23T09:18:36;20.80;99.90
16315;DHT22;8266;52.150;4.768;2023-05-23T09:21:03;20.80;99.90
16315;DHT22;8266;52.150;4.768;2023-05-23T09:23:32;20.70;99.60
16315;DHT22;8266;52.150;4.768;2023-05-23T09:26:02;20.60;99.20
16315;DHT22;8266;52.150;4.768;2023-05-23T09:28:32;20.50;99.00
16315;DHT22;8266;52.150;4.768;2023-05-23T09:30:59;20.50;99.60
16315;DHT22;8266;52.150;4.768;2023-05-23T09:33:38;20.50;99.90
16315;DHT22;8266;52.150;4.768;2023-05-23T09:36:06;20.70;99.90
16315;DHT22;8266;52.150;4.768;2023-05-23T09:38:37;20.80;99.90
16315;DHT22;8266;52.150;4.768;2023-05-23T09:41:04;20.90;99.90
16315;DHT22;8266;52.150;4.768;2023-05-23T09:43:33;21.00;99.90
16315;DHT22;8266;52.150;4.768;2023-05-23T09:46:06;21.10;99.90
16315;DHT22;8266;52.150;4.768;2023-05-23T09:48:34;21.00;99.50
16315;DHT22;8266;52.150;4.768;2023-05-23T09:51:03;20.90;99.20
16315;DHT22;8266;52.150;4.768;2023-05-23T09:53:31;20.80;99.70
16315;DHT22;8266;52.150;4.768;2023-05-23T09:55:58;20.70;99.40
16315;DHT22;8266;52.150;4.768;2023-05-23T09:58:26;20.60;99.10
16315;DHT22;8266;52.150;4.768;2023-05-23T10:00:56;20.60;99.70
16315;DHT22;8266;52.150;4.768;2023-05-23T10:03:32;20.60;99.20
16315;DHT22;8266;52.150;4.768;2023-05-23T10:06:05;20.60;99.50
16315;DHT22;8266;52.150;4.768;2023-05-23T10:08:43;20.70;98.90
16315;DHT22;8266;52.150;4.768;2023-05-23T10:14:15;20.80;99.50
16315;DHT22;8266;52.150;4.768;2023-05-23T10:16:54;20.80;99.30
16315;DHT22;8266;52.150;4.768;2023-05-23T10:19:23;20.80;99.70
16315;DHT22;8266;52.150;4.768;2023-05-23T10:21:56;20.70;99.20
16315;DHT22;8266;52.150;4.768;2023-05-23T10:24:25;20.70;99.10
16315;DHT22;8266;52.150;4.768;2023-05-23T10:26:53;20.70;98.70
16315;DHT22;8266;52.150;4.768;2023-05-23T10:29:21;20.70;98.90
16315;DHT22;8266;52.150;4.768;2023-05-23T10:31:51;20.70;98.40
16315;DHT22;8266;52.150;4.768;2023-05-23T10:34:24;20.70;98.70
16315;DHT22;8266;52.150;4.768;2023-05-23T10:36:59;20.80;98.90
16315;DHT22;8266;52.150;4.768;2023-05-23T10:39:45;20.80;99.60
16315;DHT22;8266;52.150;4.768;2023-05-23T10:42:18;20.80;99.60
16315;DHT22;8266;52.150;4.768;2023-05-23T10:44:49;20.80;98.90
16315;DHT22;8266;52.150;4.768;2023-05-23T10:47:26;20.80;98.70
16315;DHT22;8266;52.150;4.768;2023-05-23T10:49:54;20.80;97.60
16315;DHT22;8266;52.150;4.768;2023-05-23T10:52:23;20.70;97.70
16315;DHT22;8266;52.150;4.768;2023-05-23T10:54:52;20.60;97.70
16315;DHT22;8266;52.150;4.768;2023-05-23T10:57:20;20.50;97.70
16315;DHT22;8266;52.150;4.768;2023-05-23T10:59:49;20.50;98.00
16315;DHT22;8266;52.150;4.768;2023-05-23T11:02:18;20.40;98.30
16315;DHT22;8266;52.150;4.768;2023-05-23T11:05:20;20.40;98.40
16315;DHT22;8266;52.150;4.768;2023-05-23T11:08:05;20.40;98.80
16315;DHT22;8266;52.150;4.768;2023-05-23T11:10:50;20.30;98.80
16315;DHT22;8266;52.150;4.768;2023-05-23T11:13:19;20.30;99.30
16315;DHT22;8266;52.150;4.768;2023-05-23T11:15:47;20.40;98.90
16315;DHT22;8266;52.150;4.768;2023-05-23T11:18:22;20.50;98.80
16315;DHT22;8266;52.150;4.768;2023-05-23T11:20:54;20.60;98.60
16315;DHT22;8266;52.150;4.768;2023-05-23T11:23:23;20.80;98.80
16315;DHT22;8266;52.150;4.768;2023-05-23T11:26:28;20.90;97.40
16315;DHT22;8266;52.150;4.768;2023-05-23T11:28:55;21.10;98.90
16315;DHT22;8266;52.150;4.768;2023-05-23T11:31:23;21.20;96.50
16315;DHT22;8266;52.150;4.768;2023-05-23T11:33:50;21.20;96.90
16315;DHT22;8266;52.150;4.768;2023-05-23T11:36:20;21.20;96.70
16315;DHT22;8266;52.150;4.768;2023-05-23T11:38:47;21.20;95.90
16315;DHT22;8266;52.150;4.768;2023-05-23T11:41:15;21.10;95.90
16315;DHT22;8266;52.150;4.768;2023-05-23T11:43:49;21.10;95.80
16315;DHT22;8266;52.150;4.768;2023-05-23T11:46:16;21.00;96.10
16315;DHT22;8266;52.150;4.768;2023-05-23T11:48:44;20.90;95.70
16315;DHT22;8266;52.150;4.768;2023-05-23T11:51:11;20.90;96.00
16315;DHT22;8266;52.150;4.768;2023-05-23T11:53:40;20.90;96.10
16315;DHT22;8266;52.150;4.768;2023-05-23T11:56:07;20.90;95.30
16315;DHT22;8266;52.150;4.768;2023-05-23T11:58:35;21.00;95.20
16315;DHT22;8266;52.150;4.768;2023-05-23T12:01:03;21.00;95.80
16315;DHT22;8266;52.150;4.768;2023-05-23T12:03:31;21.00;95.80
16315;DHT22;8266;52.150;4.768;2023-05-23T12:05:58;21.10;96.70
16315;DHT22;8266;52.150;4.768;2023-05-23T12:08:25;21.20;95.90
16315;DHT22;8266;52.150;4.768;2023-05-23T12:10:56;21.20;95.50
16315;DHT22;8266;52.150;4.768;2023-05-23T12:13:24;21.30;94.40
16315;DHT22;8266;52.150;4.768;2023-05-23T12:15:53;21.30;94.10
16315;DHT22;8266;52.150;4.768;2023-05-23T12:18:20;21.40;95.10
16315;DHT22;8266;52.150;4.768;2023-05-23T12:20:48;21.40;94.80
16315;DHT22;8266;52.150;4.768;2023-05-23T12:23:19;21.40;94.60
16315;DHT22;8266;52.150;4.768;2023-05-23T12:25:49;21.30;94.10
16315;DHT22;8266;52.150;4.768;2023-05-23T12:28:19;21.20;94.00
16315;DHT22;8266;52.150;4.768;2023-05-23T12:30:46;21.10;93.70
16315;DHT22;8266;52.150;4.768;2023-05-23T12:33:13;21.10;94.10
16315;DHT22;8266;52.150;4.768;2023-05-23T12:35:42;21.10;94.90
16315;DHT22;8266;52.150;4.768;2023-05-23T12:38:13;21.10;95.20
16315;DHT22;8266;52.150;4.768;2023-05-23T12:40:41;21.10;94.90
16315;DHT22;8266;52.150;4.768;2023-05-23T12:43:08;21.10;93.80
16315;DHT22;8266;52.150;4.768;2023-05-23T12:45:37;21.10;94.10
16315;DHT22;8266;52.150;4.768;2023-05-23T12:48:04;21.20;94.80
16315;DHT22;8266;52.150;4.768;2023-05-23T12:50:33;21.20;93.90
16315;DHT22;8266;52.150;4.768;2023-05-23T12:53:00;21.20;93.50
16315;DHT22;8266;52.150;4.768;2023-05-23T12:55:27;21.20;93.80
16315;DHT22;8266;52.150;4.768;2023-05-23T12:57:55;21.20;93.70
16315;DHT22;8266;52.150;4.768;2023-05-23T13:00:22;21.10;93.40
16315;DHT22;8266;52.150;4.768;2023-05-23T13:02:50;21.10;93.20
16315;DHT22;8266;52.150;4.768;2023-05-23T13:05:18;21.10;93.20
16315;DHT22;8266;52.150;4.768;2023-05-23T13:07:45;21.10;93.40
16315;DHT22;8266;52.150;4.768;2023-05-23T13:10:13;21.20;93.30
16315;DHT22;8266;52.150;4.768;2023-05-23T13:12:41;21.10;92.60
16315;DHT22;8266;52.150;4.768;2023-05-23T13:15:08;21.10;92.80
16315;DHT22;8266;52.150;4.768;2023-05-23T13:17:36;21.00;93.50
16315;DHT22;8266;52.150;4.768;2023-05-23T13:20:06;21.00;94.00
16315;DHT22;8266;52.150;4.768;2023-05-23T13:22:35;21.00;93.60
16315;DHT22;8266;52.150;4.768;2023-05-23T13:25:03;20.90;93.60
16315;DHT22;8266;52.150;4.768;2023-05-23T13:27:30;20.90;93.30
16315;DHT22;8266;52.150;4.768;2023-05-23T13:29:58;20.80;93.80
16315;DHT22;8266;52.150;4.768;2023-05-23T13:32:25;20.70;94.80
16315;DHT22;8266;52.150;4.768;2023-05-23T13:34:52;20.70;95.20
16315;DHT22;8266;52.150;4.768;2023-05-23T13:37:21;20.70;95.30
16315;DHT22;8266;52.150;4.768;2023-05-23T13:39:48;20.70;95.70
16315;DHT22;8266;52.150;4.768;2023-05-23T13:42:15;20.70;95.00
16315;DHT22;8266;52.150;4.768;2023-05-23T13:44:42;20.70;94.70
16315;DHT22;8266;52.150;4.768;2023-05-23T13:47:10;20.80;94.20
16315;DHT22;8266;52.150;4.768;2023-05-23T13:49:37;20.80;93.80
16315;DHT22;8266;52.150;4.768;2023-05-23T13:52:05;20.80;93.90
16315;DHT22;8266;52.150;4.768;2023-05-23T13:54:33;20.80;93.80
16315;DHT22;8266;52.150;4.768;2023-05-23T13:57:00;20.70;94.00
16315;DHT22;8266;52.150;4.768;2023-05-23T13:59:28;20.70;93.80
16315;DHT22;8266;52.150;4.768;2023-05-23T14:01:55;20.60;93.80
16315;DHT22;8266;52.150;4.768;2023-05-23T14:04:22;20.60;94.40
16315;DHT22;8266;52.150;4.768;2023-05-23T14:06:49;20.50;94.00
16315;DHT22;8266;52.150;4.768;2023-05-23T14:09:16;20.50;94.10
16315;DHT22;8266;52.150;4.768;2023-05-23T14:11:45;20.50;93.80
16315;DHT22;8266;52.150;4.768;2023-05-23T14:14:13;20.40;93.30
16315;DHT22;8266;52.150;4.768;2023-05-23T14:16:40;20.30;93.40
16315;DHT22;8266;52.150;4.768;2023-05-23T14:19:07;20.30;93.90
16315;DHT22;8266;52.150;4.768;2023-05-23T14:21:34;20.30;94.60
16315;DHT22;8266;52.150;4.768;2023-05-23T14:24:01;20.30;94.20
16315;DHT22;8266;52.150;4.768;2023-05-23T14:26:29;20.30;93.80
16315;DHT22;8266;52.150;4.768;2023-05-23T14:28:58;20.30;93.90
16315;DHT22;8266;52.150;4.768;2023-05-23T14:31:25;20.30;94.60
16315;DHT22;8266;52.150;4.768;2023-05-23T14:33:52;20.30;94.40
16315;DHT22;8266;52.150;4.768;2023-05-23T14:36:19;20.30;94.60
16315;DHT22;8266;52.150;4.768;2023-05-23T14:38:46;20.30;94.20
16315;DHT22;8266;52.150;4.768;2023-05-23T14:41:15;20.30;93.90
16315;DHT22;8266;52.150;4.768;2023-05-23T14:43:43;20.30;94.80
16315;DHT22;8266;52.150;4.768;2023-05-23T14:46:12;20.30;94.00
16315;DHT22;8266;52.150;4.768;2023-05-23T14:48:40;20.30;93.80
16315;DHT22;8266;52.150;4.768;2023-05-23T14:51:07;20.30;93.40
16315;DHT22;8266;52.150;4.768;2023-05-23T14:53:35;20.30;93.50
16315;DHT22;8266;52.150;4.768;2023-05-23T14:56:02;20.20;93.30
16315;DHT22;8266;52.150;4.768;2023-05-23T14:58:29;20.20;93.60
16315;DHT22;8266;52.150;4.768;2023-05-23T15:00:56;20.10;93.70
16315;DHT22;8266;52.150;4.768;2023-05-23T15:03:25;20.10;93.50
16315;DHT22;8266;52.150;4.768;2023-05-23T15:05:53;20.00;93.00
16315;DHT22;8266;52.150;4.768;2023-05-23T15:08:20;20.00;92.80
16315;DHT22;8266;52.150;4.768;2023-05-23T15:10:47;19.90;93.10
16315;DHT22;8266;52.150;4.768;2023-05-23T15:13:14;19.90;92.50
16315;DHT22;8266;52.150;4.768;2023-05-23T15:15:41;19.80;91.80
16315;DHT22;8266;52.150;4.768;2023-05-23T15:18:08;19.80;92.10
16315;DHT22;8266;52.150;4.768;2023-05-23T15:20:38;19.70;92.10
16315;DHT22;8266;52.150;4.768;2023-05-23T15:23:05;19.70;92.50
16315;DHT22;8266;52.150;4.768;2023-05-23T15:25:32;19.60;92.70
16315;DHT22;8266;52.150;4.768;2023-05-23T15:28:00;19.60;92.20
16315;DHT22;8266;52.150;4.768;2023-05-23T15:30:27;19.50;92.50
16315;DHT22;8266;52.150;4.768;2023-05-23T15:32:54;19.50;92.60
16315;DHT22;8266;52.150;4.768;2023-05-23T15:35:22;19.40;93.10
16315;DHT22;8266;52.150;4.768;2023-05-23T15:37:51;19.40;93.90
16315;DHT22;8266;52.150;4.768;2023-05-23T15:40:18;19.40;94.30
16315;DHT22;8266;52.150;4.768;2023-05-23T15:42:46;19.50;94.30
16315;DHT22;8266;52.150;4.768;2023-05-23T15:45:13;19.60;94.60
16315;DHT22;8266;52.150;4.768;2023-05-23T15:47:41;19.70;94.60
16315;DHT22;8266;52.150;4.768;2023-05-23T15:50:09;19.80;94.20
16315;DHT22;8266;52.150;4.768;2023-05-23T15:52:36;19.80;93.90
16315;DHT22;8266;52.150;4.768;2023-05-23T15:55:07;19.90;93.90